sensor_id;sensor_type;location;lat;lon;timestamp;pressure;altitude;pressure_sealevel;temperature;humidity
61337;BME280;47212;41.326;2.104;2023-02-19T00:02:06;102653.19;;;11.24;49.55
61337;BME280;47212;41.326;2.104;2023-02-19T00:07:13;102656.81;;;11.18;49.34
61337;BME280;47212;41.326;2.104;2023-02-19T00:12:26;102653.91;;;11.13;49.82
61337;BME280;47212;41.326;2.104;2023-02-19T00:17:30;102655.00;;;11.05;50.00
61337;BME280;47212;41.326;2.104;2023-02-19T00:22:35;102651.47;;;10.98;50.46
61337;BME280;47212;41.326;2.104;2023-02-19T00:27:41;102643.97;;;10.94;50.26
61337;BME280;47212;41.326;2.104;2023-02-19T00:32:49;102637.72;;;10.87;51.22
61337;BME280;47212;41.326;2.104;2023-02-19T00:37:53;102635.84;;;10.80;50.81
61337;BME280;47212;41.326;2.104;2023-02-19T00:42:56;102619.94;;;10.77;51.60
61337;BME280;47212;41.326;2.104;2023-02-19T00:48:03;102633.38;;;10.72;51.15
61337;BME280;47212;41.326;2.104;2023-02-19T00:53:09;102627.13;;;10.65;51.50
61337;BME280;47212;41.326;2.104;2023-02-19T00:58:18;102622.56;;;10.59;51.62
61337;BME280;47212;41.326;2.104;2023-02-19T01:03:31;102623.00;;;10.56;51.93
61337;BME280;47212;41.326;2.104;2023-02-19T01:08:37;102626.38;;;10.51;52.02
61337;BME280;47212;41.326;2.104;2023-02-19T01:13:51;102624.28;;;10.47;51.60
61337;BME280;47212;41.326;2.104;2023-02-19T01:18:59;102623.66;;;10.45;52.11
61337;BME280;47212;41.326;2.104;2023-02-19T01:24:04;102623.47;;;10.46;51.82
61337;BME280;47212;41.326;2.104;2023-02-19T01:29:11;102611.72;;;10.46;51.97
61337;BME280;47212;41.326;2.104;2023-02-19T01:34:23;102614.25;;;10.47;51.74
61337;BME280;47212;41.326;2.104;2023-02-19T01:39:26;102603.34;;;10.47;51.92
61337;BME280;47212;41.326;2.104;2023-02-19T01:50:01;102598.72;;;10.48;52.11
61337;BME280;47212;41.326;2.104;2023-02-19T01:55:05;102597.28;;;10.45;52.28
61337;BME280;47212;41.326;2.104;2023-02-19T02:05:23;102588.28;;;10.45;51.63
61337;BME280;47212;41.326;2.104;2023-02-19T02:10:30;102583.06;;;10.43;51.55
61337;BME280;47212;41.326;2.104;2023-02-19T02:28:12;102555.03;;;10.30;51.96
61337;BME280;47212;41.326;2.104;2023-02-19T02:38:56;102552.72;;;10.27;51.95
61337;BME280;47212;41.326;2.104;2023-02-19T02:44:03;102542.72;;;10.20;51.70
61337;BME280;47212;41.326;2.104;2023-02-19T02:49:22;102540.81;;;10.14;52.50
61337;BME280;47212;41.326;2.104;2023-02-19T02:54:32;102538.97;;;10.08;52.32
61337;BME280;47212;41.326;2.104;2023-02-19T03:00:01;102543.78;;;10.06;52.25
61337;BME280;47212;41.326;2.104;2023-02-19T03:05:20;102543.59;;;10.01;51.82
61337;BME280;47212;41.326;2.104;2023-02-19T03:11:05;102539.84;;;9.96;52.59
61337;BME280;47212;41.326;2.104;2023-02-19T03:16:32;102538.59;;;9.92;52.88
61337;BME280;47212;41.326;2.104;2023-02-19T03:22:22;102537.56;;;9.93;52.47
61337;BME280;47212;41.326;2.104;2023-02-19T03:27:35;102539.84;;;9.96;52.03
61337;BME280;47212;41.326;2.104;2023-02-19T03:32:57;102537.09;;;10.02;51.81
61337;BME280;47212;41.326;2.104;2023-02-19T03:43:58;102537.50;;;10.06;51.48
61337;BME280;47212;41.326;2.104;2023-02-19T03:55:01;102542.75;;;10.01;52.36
61337;BME280;47212;41.326;2.104;2023-02-19T04:00:36;102546.75;;;9.98;52.26
61337;BME280;47212;41.326;2.104;2023-02-19T04:05:46;102546.13;;;9.96;52.25
61337;BME280;47212;41.326;2.104;2023-02-19T04:10:58;102542.16;;;9.92;52.16
61337;BME280;47212;41.326;2.104;2023-02-19T04:16:26;102542.81;;;9.87;51.96
61337;BME280;47212;41.326;2.104;2023-02-19T04:21:35;102535.69;;;9.86;52.25
61337;BME280;47212;41.326;2.104;2023-02-19T04:26:43;102537.78;;;9.84;52.46
61337;BME280;47212;41.326;2.104;2023-02-19T04:31:49;102539.06;;;9.82;52.19
61337;BME280;47212;41.326;2.104;2023-02-19T04:36:52;102537.81;;;9.78;52.37
61337;BME280;47212;41.326;2.104;2023-02-19T04:42:01;102544.94;;;9.72;52.53
61337;BME280;47212;41.326;2.104;2023-02-19T04:47:06;102551.22;;;9.66;52.71
61337;BME280;47212;41.326;2.104;2023-02-19T04:52:17;102552.06;;;9.60;52.69
61337;BME280;47212;41.326;2.104;2023-02-19T04:57:20;102548.31;;;9.54;52.21
61337;BME280;47212;41.326;2.104;2023-02-19T05:11:47;102534.06;;;9.72;52.65
61337;BME280;47212;41.326;2.104;2023-02-19T05:37:44;102545.59;;;9.41;52.27
61337;BME280;47212;41.326;2.104;2023-02-19T05:42:49;102548.53;;;9.33;52.52
61337;BME280;47212;41.326;2.104;2023-02-19T05:47:57;102559.59;;;9.32;52.72
61337;BME280;47212;41.326;2.104;2023-02-19T05:53:03;102559.59;;;9.32;52.44
61337;BME280;47212;41.326;2.104;2023-02-19T05:58:08;102558.34;;;9.27;53.09
61337;BME280;47212;41.326;2.104;2023-02-19T06:03:12;102552.06;;;9.27;53.20
61337;BME280;47212;41.326;2.104;2023-02-19T06:08:19;102549.78;;;9.24;53.23
61337;BME280;47212;41.326;2.104;2023-02-19T06:13:32;102555.22;;;9.17;52.92
61337;BME280;47212;41.326;2.104;2023-02-19T06:18:42;102555.22;;;9.11;53.49
61337;BME280;47212;41.326;2.104;2023-02-19T06:23:49;102558.56;;;9.06;52.93
61337;BME280;47212;41.326;2.104;2023-02-19T06:29:04;102568.59;;;8.99;53.18
61337;BME280;47212;41.326;2.104;2023-02-19T06:34:09;102576.50;;;8.94;53.62
61337;BME280;47212;41.326;2.104;2023-02-19T06:39:24;102565.84;;;8.92;53.61
61337;BME280;47212;41.326;2.104;2023-02-19T06:44:29;102575.06;;;8.91;53.74
61337;BME280;47212;41.326;2.104;2023-02-19T06:49:33;102582.56;;;8.89;53.23
61337;BME280;47212;41.326;2.104;2023-02-19T06:54:48;102589.66;;;8.90;53.26
61337;BME280;47212;41.326;2.104;2023-02-19T06:59:55;102589.66;;;8.90;53.04
61337;BME280;47212;41.326;2.104;2023-02-19T07:05:03;102589.25;;;8.93;53.27
61337;BME280;47212;41.326;2.104;2023-02-19T07:10:18;102594.69;;;8.93;54.00
61337;BME280;47212;41.326;2.104;2023-02-19T07:15:25;102595.94;;;8.91;53.73
61337;BME280;47212;41.326;2.104;2023-02-19T07:20:29;102605.56;;;8.93;53.19
61337;BME280;47212;41.326;2.104;2023-02-19T07:25:32;102607.44;;;9.00;53.24
61337;BME280;47212;41.326;2.104;2023-02-19T07:30:58;102612.69;;;9.08;52.77
61337;BME280;47212;41.326;2.104;2023-02-19T07:36:07;102609.34;;;9.19;52.91
61337;BME280;47212;41.326;2.104;2023-02-19T07:41:18;102612.69;;;9.34;52.98
61337;BME280;47212;41.326;2.104;2023-02-19T07:46:28;102620.22;;;9.45;52.59
61337;BME280;47212;41.326;2.104;2023-02-19T07:51:39;102628.00;;;9.62;52.46
61337;BME280;47212;41.326;2.104;2023-02-19T07:56:43;102627.31;;;9.93;51.96
61337;BME280;47212;41.326;2.104;2023-02-19T08:01:47;102628.00;;;10.59;50.90
61337;BME280;47212;41.326;2.104;2023-02-19T08:07:15;102634.56;;;11.53;48.59
61337;BME280;47212;41.326;2.104;2023-02-19T08:12:22;102646.63;;;12.31;48.03
61337;BME280;47212;41.326;2.104;2023-02-19T08:17:44;102637.91;;;12.89;45.76
61337;BME280;47212;41.326;2.104;2023-02-19T08:22:57;102642.13;;;13.33;46.52
61337;BME280;47212;41.326;2.104;2023-02-19T08:28:03;102634.34;;;13.72;45.45
61337;BME280;47212;41.326;2.104;2023-02-19T08:33:16;102634.72;;;13.87;44.73
61337;BME280;47212;41.326;2.104;2023-02-19T08:38:21;102628.63;;;14.09;44.67
61337;BME280;47212;41.326;2.104;2023-02-19T08:43:28;102645.72;;;14.39;44.56
61337;BME280;47212;41.326;2.104;2023-02-19T08:48:34;102643.16;;;14.73;43.97
61337;BME280;47212;41.326;2.104;2023-02-19T08:53:47;102653.81;;;14.97;42.98
61337;BME280;47212;41.326;2.104;2023-02-19T08:58:59;102650.53;;;15.12;43.34
61337;BME280;47212;41.326;2.104;2023-02-19T09:04:09;102653.19;;;15.24;43.07
61337;BME280;47212;41.326;2.104;2023-02-19T09:09:18;102661.38;;;15.36;42.36
61337;BME280;47212;41.326;2.104;2023-02-19T09:14:25;102661.88;;;15.49;42.45
61337;BME280;47212;41.326;2.104;2023-02-19T09:19:44;102657.56;;;15.53;41.75
61337;BME280;47212;41.326;2.104;2023-02-19T09:24:56;102665.50;;;15.67;41.76
61337;BME280;47212;41.326;2.104;2023-02-19T09:30:02;102667.25;;;15.89;41.83
61337;BME280;47212;41.326;2.104;2023-02-19T09:35:07;102655.03;;;16.19;39.45
61337;BME280;47212;41.326;2.104;2023-02-19T09:40:24;102659.72;;;16.40;40.69
61337;BME280;47212;41.326;2.104;2023-02-19T09:45:38;102657.25;;;16.61;41.50
61337;BME280;47212;41.326;2.104;2023-02-19T09:50:49;102655.03;;;16.79;40.58
61337;BME280;47212;41.326;2.104;2023-02-19T09:56:05;102645.59;;;16.97;40.75
61337;BME280;47212;41.326;2.104;2023-02-19T10:01:09;102639.38;;;17.07;40.39
61337;BME280;47212;41.326;2.104;2023-02-19T10:06:25;102644.50;;;17.25;40.20
61337;BME280;47212;41.326;2.104;2023-02-19T10:11:46;102646.16;;;17.53;39.42
61337;BME280;47212;41.326;2.104;2023-02-19T10:17:02;102646.97;;;17.86;38.74
61337;BME280;47212;41.326;2.104;2023-02-19T10:22:14;102647.09;;;18.06;37.93
61337;BME280;47212;41.326;2.104;2023-02-19T10:27:19;102640.91;;;18.26;38.81
61337;BME280;47212;41.326;2.104;2023-02-19T10:32:24;102641.59;;;18.53;37.99
61337;BME280;47212;41.326;2.104;2023-02-19T10:37:32;102645.00;;;18.75;38.12
61337;BME280;47212;41.326;2.104;2023-02-19T10:42:49;102636.50;;;19.02;36.40
61337;BME280;47212;41.326;2.104;2023-02-19T10:47:55;102634.34;;;19.20;37.95
61337;BME280;47212;41.326;2.104;2023-02-19T10:53:20;102630.78;;;19.39;35.48
61337;BME280;47212;41.326;2.104;2023-02-19T10:58:39;102620.59;;;19.55;36.95
61337;BME280;47212;41.326;2.104;2023-02-19T11:10:19;102636.56;;;19.84;33.98
61337;BME280;47212;41.326;2.104;2023-02-19T11:15:37;102632.13;;;19.88;38.40
61337;BME280;47212;41.326;2.104;2023-02-19T11:20:50;102628.31;;;19.68;39.33
61337;BME280;47212;41.326;2.104;2023-02-19T11:26:16;102632.19;;;19.57;40.07
61337;BME280;47212;41.326;2.104;2023-02-19T11:31:31;102632.72;;;19.39;40.23
61337;BME280;47212;41.326;2.104;2023-02-19T11:37:14;102637.13;;;19.25;41.88
61337;BME280;47212;41.326;2.104;2023-02-19T11:42:40;102626.31;;;19.03;44.19
61337;BME280;47212;41.326;2.104;2023-02-19T11:48:34;102617.19;;;18.92;44.03
61337;BME280;47212;41.326;2.104;2023-02-19T11:53:47;102604.47;;;18.91;44.23
61337;BME280;47212;41.326;2.104;2023-02-19T11:59:22;102613.59;;;19.02;44.47
61337;BME280;47212;41.326;2.104;2023-02-19T12:16:35;102593.13;;;18.77;47.83
61337;BME280;47212;41.326;2.104;2023-02-19T12:38:25;102560.91;;;19.29;45.40
61337;BME280;47212;41.326;2.104;2023-02-19T12:44:04;102544.59;;;19.48;45.11
61337;BME280;47212;41.326;2.104;2023-02-19T12:49:27;102538.78;;;19.69;43.14
61337;BME280;47212;41.326;2.104;2023-02-19T12:54:45;102529.34;;;19.81;42.74
61337;BME280;47212;41.326;2.104;2023-02-19T12:59:59;102530.44;;;20.00;43.37
61337;BME280;47212;41.326;2.104;2023-02-19T13:05:39;102513.00;;;20.04;44.74
61337;BME280;47212;41.326;2.104;2023-02-19T13:11:05;102507.22;;;19.91;43.70
61337;BME280;47212;41.326;2.104;2023-02-19T13:16:20;102503.09;;;19.88;43.82
61337;BME280;47212;41.326;2.104;2023-02-19T13:21:35;102501.75;;;19.70;44.67
61337;BME280;47212;41.326;2.104;2023-02-19T13:32:58;102492.41;;;19.51;45.97
61337;BME280;47212;41.326;2.104;2023-02-19T13:38:15;102486.09;;;19.20;48.55
61337;BME280;47212;41.326;2.104;2023-02-19T13:43:39;102488.03;;;18.99;48.85
61337;BME280;47212;41.326;2.104;2023-02-19T13:48:45;102485.28;;;18.74;47.73
61337;BME280;47212;41.326;2.104;2023-02-19T13:54:13;102485.22;;;18.54;49.36
61337;BME280;47212;41.326;2.104;2023-02-19T13:59:37;102483.25;;;18.29;50.08
61337;BME280;47212;41.326;2.104;2023-02-19T14:05:11;102480.06;;;17.95;52.58
61337;BME280;47212;41.326;2.104;2023-02-19T14:10:56;102473.06;;;17.67;54.41
61337;BME280;47212;41.326;2.104;2023-02-19T14:21:45;102468.63;;;17.24;53.62
61337;BME280;47212;41.326;2.104;2023-02-19T14:27:26;102453.16;;;17.12;55.61
61337;BME280;47212;41.326;2.104;2023-02-19T14:33:01;102448.22;;;17.14;54.86
61337;BME280;47212;41.326;2.104;2023-02-19T14:39:28;102448.19;;;17.09;55.08
61337;BME280;47212;41.326;2.104;2023-02-19T14:45:01;102448.22;;;17.14;54.18
61337;BME280;47212;41.326;2.104;2023-02-19T14:50:39;102435.63;;;17.24;52.88
61337;BME280;47212;41.326;2.104;2023-02-19T14:56:04;102439.53;;;17.33;51.81
61337;BME280;47212;41.326;2.104;2023-02-19T15:01:26;102431.63;;;17.46;50.81
61337;BME280;47212;41.326;2.104;2023-02-19T15:06:35;102430.78;;;17.41;49.57
61337;BME280;47212;41.326;2.104;2023-02-19T15:11:41;102425.31;;;17.46;49.36
61337;BME280;47212;41.326;2.104;2023-02-19T15:16:46;102425.88;;;17.48;49.03
61337;BME280;47212;41.326;2.104;2023-02-19T15:21:54;102428.31;;;17.39;49.11
61337;BME280;47212;41.326;2.104;2023-02-19T15:27:17;102422.19;;;17.32;49.69
61337;BME280;47212;41.326;2.104;2023-02-19T15:32:29;102418.88;;;17.30;49.53
61337;BME280;47212;41.326;2.104;2023-02-19T15:37:42;102413.31;;;17.25;48.48
61337;BME280;47212;41.326;2.104;2023-02-19T15:42:47;102414.66;;;17.17;48.57
61337;BME280;47212;41.326;2.104;2023-02-19T15:47:56;102408.59;;;17.15;49.54
61337;BME280;47212;41.326;2.104;2023-02-19T15:53:15;102406.97;;;17.19;47.75
61337;BME280;47212;41.326;2.104;2023-02-19T15:58:48;102405.91;;;17.26;46.95
61337;BME280;47212;41.326;2.104;2023-02-19T16:03:57;102412.53;;;17.30;46.96
61337;BME280;47212;41.326;2.104;2023-02-19T16:09:21;102411.97;;;17.28;45.19
61337;BME280;47212;41.326;2.104;2023-02-19T16:14:42;102397.38;;;17.27;45.30
61337;BME280;47212;41.326;2.104;2023-02-19T16:19:59;102404.84;;;17.32;44.63
61337;BME280;47212;41.326;2.104;2023-02-19T16:25:40;102401.75;;;17.23;46.21
61337;BME280;47212;41.326;2.104;2023-02-19T16:31:04;102399.22;;;17.11;47.35
61337;BME280;47212;41.326;2.104;2023-02-19T16:36:38;102409.56;;;16.94;47.05
61337;BME280;47212;41.326;2.104;2023-02-19T16:47:12;102400.28;;;16.68;48.01
61337;BME280;47212;41.326;2.104;2023-02-19T16:52:23;102402.09;;;16.58;48.43
61337;BME280;47212;41.326;2.104;2023-02-19T16:57:41;102414.06;;;16.46;48.42
61337;BME280;47212;41.326;2.104;2023-02-19T17:02:49;102419.47;;;16.36;47.42
61337;BME280;47212;41.326;2.104;2023-02-19T17:07:54;102423.22;;;16.25;48.29
61337;BME280;47212;41.326;2.104;2023-02-19T17:12:57;102415.38;;;16.12;48.45
61337;BME280;47212;41.326;2.104;2023-02-19T17:18:25;102420.47;;;15.98;48.32
61337;BME280;47212;41.326;2.104;2023-02-19T17:23:35;102421.94;;;15.84;50.99
61337;BME280;47212;41.326;2.104;2023-02-19T17:28:43;102423.44;;;15.70;51.37
61337;BME280;47212;41.326;2.104;2023-02-19T17:34:00;102429.25;;;15.56;53.25
61337;BME280;47212;41.326;2.104;2023-02-19T17:39:14;102422.72;;;15.41;54.82
61337;BME280;47212;41.326;2.104;2023-02-19T17:44:21;102434.63;;;15.29;55.11
61337;BME280;47212;41.326;2.104;2023-02-19T17:49:27;102442.97;;;15.18;54.72
61337;BME280;47212;41.326;2.104;2023-02-19T17:54:38;102437.59;;;15.06;55.58
61337;BME280;47212;41.326;2.104;2023-02-19T17:59:50;102438.84;;;14.98;55.75
61337;BME280;47212;41.326;2.104;2023-02-19T18:04:55;102451.91;;;14.91;56.95
61337;BME280;47212;41.326;2.104;2023-02-19T18:10:03;102457.78;;;14.83;58.61
61337;BME280;47212;41.326;2.104;2023-02-19T18:15:23;102455.69;;;14.74;61.71
61337;BME280;47212;41.326;2.104;2023-02-19T18:20:30;102459.41;;;14.68;61.17
61337;BME280;47212;41.326;2.104;2023-02-19T18:25:49;102468.13;;;14.64;62.12
61337;BME280;47212;41.326;2.104;2023-02-19T18:30:53;102462.56;;;14.59;63.46
61337;BME280;47212;41.326;2.104;2023-02-19T18:35:57;102465.22;;;14.54;63.30
61337;BME280;47212;41.326;2.104;2023-02-19T18:41:04;102477.75;;;14.50;64.33
61337;BME280;47212;41.326;2.104;2023-02-19T18:46:10;102473.00;;;14.46;65.00
61337;BME280;47212;41.326;2.104;2023-02-19T18:51:25;102464.44;;;14.42;65.56
61337;BME280;47212;41.326;2.104;2023-02-19T18:56:41;102467.19;;;14.42;66.24
61337;BME280;47212;41.326;2.104;2023-02-19T19:01:51;102459.34;;;14.34;67.04
61337;BME280;47212;41.326;2.104;2023-02-19T19:06:57;102472.94;;;14.29;66.95
61337;BME280;47212;41.326;2.104;2023-02-19T19:12:02;102469.53;;;14.22;67.59
61337;BME280;47212;41.326;2.104;2023-02-19T19:17:09;102465.59;;;14.18;68.54
61337;BME280;47212;41.326;2.104;2023-02-19T19:22:15;102461.69;;;14.14;68.16
61337;BME280;47212;41.326;2.104;2023-02-19T19:27:26;102466.84;;;14.10;68.64
61337;BME280;47212;41.326;2.104;2023-02-19T19:32:31;102464.34;;;14.09;68.62
61337;BME280;47212;41.326;2.104;2023-02-19T19:37:40;102464.81;;;14.06;68.91
61337;BME280;47212;41.326;2.104;2023-02-19T19:42:50;102470.78;;;14.02;68.49
61337;BME280;47212;41.326;2.104;2023-02-19T19:48:04;102468.19;;;13.96;67.72
61337;BME280;47212;41.326;2.104;2023-02-19T19:53:10;102469.75;;;13.92;67.08
61337;BME280;47212;41.326;2.104;2023-02-19T19:58:15;102473.22;;;13.87;67.30
61337;BME280;47212;41.326;2.104;2023-02-19T20:03:24;102470.34;;;13.82;66.60
61337;BME280;47212;41.326;2.104;2023-02-19T20:08:37;102477.63;;;13.77;67.01
61337;BME280;47212;41.326;2.104;2023-02-19T20:13:48;102470.13;;;13.72;66.08
61337;BME280;47212;41.326;2.104;2023-02-19T20:19:02;102476.31;;;13.67;66.44
61337;BME280;47212;41.326;2.104;2023-02-19T20:24:17;102485.84;;;13.65;65.99
61337;BME280;47212;41.326;2.104;2023-02-19T20:29:21;102487.41;;;13.61;65.17
61337;BME280;47212;41.326;2.104;2023-02-19T20:34:36;102484.56;;;13.56;62.81
61337;BME280;47212;41.326;2.104;2023-02-19T20:39:56;102491.47;;;13.47;60.60
61337;BME280;47212;41.326;2.104;2023-02-19T20:45:04;102502.28;;;13.42;60.14
61337;BME280;47212;41.326;2.104;2023-02-19T20:50:09;102508.25;;;13.38;58.97
61337;BME280;47212;41.326;2.104;2023-02-19T20:55:18;102501.56;;;13.34;58.43
61337;BME280;47212;41.326;2.104;2023-02-19T21:00:26;102503.13;;;13.30;57.86
61337;BME280;47212;41.326;2.104;2023-02-19T21:05:31;102485.41;;;13.21;57.09
61337;BME280;47212;41.326;2.104;2023-02-19T21:10:36;102488.38;;;13.20;56.84
61337;BME280;47212;41.326;2.104;2023-02-19T21:15:49;102489.69;;;13.17;55.43
61337;BME280;47212;41.326;2.104;2023-02-19T21:20:56;102481.56;;;13.11;55.36
61337;BME280;47212;41.326;2.104;2023-02-19T21:26:03;102483.59;;;13.03;55.50
61337;BME280;47212;41.326;2.104;2023-02-19T21:31:10;102493.75;;;12.96;55.33
61337;BME280;47212;41.326;2.104;2023-02-19T21:36:18;102491.16;;;12.90;55.44
61337;BME280;47212;41.326;2.104;2023-02-19T21:41:25;102487.81;;;12.88;55.13
61337;BME280;47212;41.326;2.104;2023-02-19T21:46:31;102496.94;;;12.82;55.56
61337;BME280;47212;41.326;2.104;2023-02-19T21:51:42;102492.44;;;12.75;55.20
61337;BME280;47212;41.326;2.104;2023-02-19T21:56:50;102491.69;;;12.68;55.04
61337;BME280;47212;41.326;2.104;2023-02-19T22:01:58;102497.84;;;12.64;55.29
61337;BME280;47212;41.326;2.104;2023-02-19T22:07:06;102509.25;;;12.61;55.30
61337;BME280;47212;41.326;2.104;2023-02-19T22:12:13;102496.91;;;12.58;54.92
61337;BME280;47212;41.326;2.104;2023-02-19T22:17:33;102500.09;;;12.55;55.10
61337;BME280;47212;41.326;2.104;2023-02-19T22:22:40;102495.31;;;12.51;54.99
61337;BME280;47212;41.326;2.104;2023-02-19T22:27:48;102488.91;;;12.45;54.70
61337;BME280;47212;41.326;2.104;2023-02-19T22:33:00;102474.66;;;12.43;54.44
61337;BME280;47212;41.326;2.104;2023-02-19T22:38:05;102484.50;;;12.44;55.14
61337;BME280;47212;41.326;2.104;2023-02-19T22:43:15;102475.72;;;12.42;53.95
61337;BME280;47212;41.326;2.104;2023-02-19T22:48:29;102478.44;;;12.42;54.73
61337;BME280;47212;41.326;2.104;2023-02-19T22:53:46;102479.50;;;12.41;54.20
61337;BME280;47212;41.326;2.104;2023-02-19T22:59:03;102479.13;;;12.37;54.41
61337;BME280;47212;41.326;2.104;2023-02-19T23:04:08;102478.16;;;12.32;54.28
61337;BME280;47212;41.326;2.104;2023-02-19T23:09:22;102488.50;;;12.30;54.73
61337;BME280;47212;41.326;2.104;2023-02-19T23:14:32;102486.06;;;12.22;54.07
61337;BME280;47212;41.326;2.104;2023-02-19T23:19:39;102502.56;;;12.15;54.48
61337;BME280;47212;41.326;2.104;2023-02-19T23:24:50;102510.56;;;12.10;55.04
61337;BME280;47212;41.326;2.104;2023-02-19T23:29:58;102497.00;;;12.03;54.96
61337;BME280;47212;41.326;2.104;2023-02-19T23:35:19;102499.97;;;12.02;54.86
61337;BME280;47212;41.326;2.104;2023-02-19T23:40:24;102501.41;;;12.04;55.20
61337;BME280;47212;41.326;2.104;2023-02-19T23:45:33;102499.63;;;12.10;54.73
61337;BME280;47212;41.326;2.104;2023-02-19T23:50:39;102499.59;;;12.17;54.42
61337;BME280;47212;41.326;2.104;2023-02-19T23:55:45;102500.78;;;12.21;54.91
